createdAt,value
2022-09-20T00:03:17.711Z,9.87
2022-09-20T00:09:19.426Z,9.59
2022-09-20T00:15:21.129Z,9.91
2022-09-20T00:21:25.638Z,9.86
2022-09-20T00:27:27.672Z,9.72
2022-09-20T00:33:49.275Z,9.68
2022-09-20T00:39:50.980Z,9.69
2022-09-20T00:45:52.824Z,9.43
2022-09-20T00:51:59.321Z,9.72
2022-09-20T00:58:01.798Z,9.36
2022-09-20T01:04:03.985Z,9.63
2022-09-20T01:10:06.289Z,9.23
2022-09-20T01:16:09.338Z,9.04
2022-09-20T01:22:26.980Z,9.30
2022-09-20T01:28:30.423Z,9.36
2022-09-20T01:34:37.934Z,9.32
2022-09-20T01:41:04.287Z,9.13
2022-09-20T01:47:20.091Z,9.36
2022-09-20T01:53:55.830Z,9.53
2022-09-20T02:00:06.757Z,9.55
2022-09-20T02:06:39.372Z,9.39
2022-09-20T02:12:56.514Z,9.46
2022-09-20T02:19:35.768Z,9.46
2022-09-20T02:25:58.765Z,9.43
2022-09-20T02:32:37.951Z,9.49
2022-09-20T02:39:00.424Z,9.15
2022-09-20T02:45:18.812Z,9.35
2022-09-20T02:51:37.837Z,8.94
2022-09-20T02:58:05.868Z,9.41
2022-09-20T03:04:34.933Z,9.44
2022-09-20T03:10:44.962Z,9.41
2022-09-20T03:17:05.176Z,9.42
2022-09-20T03:23:26.880Z,9.32
2022-09-20T03:29:43.809Z,9.29
2022-09-20T03:36:09.578Z,9.20
2022-09-20T03:42:11.278Z,9.31
2022-09-20T03:48:31.864Z,9.24
2022-09-20T03:55:10.035Z,9.14
2022-09-20T04:01:30.447Z,9.33
2022-09-20T04:07:44.312Z,9.30
2022-09-20T04:14:03.908Z,9.31
2022-09-20T04:20:20.708Z,9.30
2022-09-20T04:26:31.445Z,9.12
2022-09-20T04:32:46.988Z,9.12
2022-09-20T04:38:57.598Z,9.03
2022-09-20T04:45:18.352Z,9.26
2022-09-20T04:51:38.737Z,9.26
2022-09-20T04:57:46.547Z,9.27
2022-09-20T05:03:54.208Z,9.23
2022-09-20T05:10:15.811Z,9.27
2022-09-20T05:16:34.050Z,9.20
2022-09-20T05:23:03.651Z,9.26
2022-09-20T05:29:10.669Z,9.34
2022-09-20T05:35:43.393Z,9.29
2022-09-20T05:41:59.333Z,9.32
2022-09-20T05:48:10.367Z,9.41
2022-09-20T05:54:27.668Z,9.43
2022-09-20T06:01:05.453Z,9.26
2022-09-20T06:14:03.864Z,9.45
2022-09-20T06:33:06.604Z,9.73
2022-09-20T06:39:43.601Z,10.04
2022-09-20T06:45:45.767Z,9.56
2022-09-20T06:52:13.620Z,10.21
2022-09-20T06:58:21.601Z,10.42
2022-09-20T07:04:27.435Z,9.87
2022-09-20T07:11:07.346Z,10.16
2022-09-20T07:17:09.761Z,10.32
2022-09-20T07:23:16.410Z,10.26
2022-09-20T07:29:21.566Z,10.03
2022-09-20T07:35:23.633Z,10.09
2022-09-20T07:41:35.488Z,10.19
2022-09-20T07:47:41.763Z,10.12
2022-09-20T08:00:05.925Z,10.05
2022-09-20T08:06:11.761Z,10.84
2022-09-20T08:18:30.035Z,10.63
2022-09-20T08:24:35.781Z,11.17
2022-09-20T08:30:38.133Z,10.72
2022-09-20T08:36:44.977Z,11.51
2022-09-20T08:42:48.502Z,11.65
2022-09-20T08:55:20.908Z,11.67
2022-09-20T09:08:45.209Z,12.54
2022-09-20T09:21:10.633Z,13.29
2022-09-20T09:33:34.465Z,13.06
2022-09-20T09:39:38.502Z,12.61
2022-09-20T09:45:44.581Z,13.10
2022-09-20T09:52:04.824Z,13.49
2022-09-20T10:05:10.265Z,14.21
2022-09-20T10:18:25.159Z,14.20
2022-09-20T10:24:59.667Z,14.50
2022-09-20T10:38:21.849Z,13.85
2022-09-20T10:44:45.617Z,13.85
2022-09-20T10:51:21.360Z,14.25
2022-09-20T10:57:51.238Z,14.60
2022-09-20T11:04:26.817Z,15.23
2022-09-20T11:30:37.372Z,14.90
2022-09-20T11:37:15.494Z,13.99
2022-09-20T11:43:32.170Z,14.71
2022-09-20T11:50:13.142Z,15.48
2022-09-20T11:56:25.235Z,15.23
2022-09-20T12:02:59.044Z,15.67
2022-09-20T12:09:33.493Z,15.02
2022-09-20T12:15:58.823Z,14.67
2022-09-20T12:22:04.237Z,15.26
2022-09-20T12:28:23.419Z,15.46
2022-09-20T12:34:30.216Z,16.09
2022-09-20T12:40:37.351Z,16.05
2022-09-20T12:46:52.363Z,15.56
2022-09-20T12:52:58.906Z,15.60
2022-09-20T12:59:05.623Z,15.77
2022-09-20T13:05:32.273Z,16.26
2022-09-20T13:11:56.102Z,15.84
2022-09-20T13:18:01.513Z,15.90
2022-09-20T13:24:04.506Z,15.79
2022-09-20T13:30:22.629Z,15.44
2022-09-20T13:36:30.501Z,16.09
2022-09-20T13:49:10.614Z,15.70
2022-09-20T13:55:34.051Z,16.07
2022-09-20T14:02:12.153Z,15.63
2022-09-20T14:08:34.130Z,15.78
2022-09-20T14:14:37.052Z,15.69
2022-09-20T14:20:43.995Z,16.10
2022-09-20T14:27:05.669Z,15.51
2022-09-20T14:33:27.002Z,15.43
2022-09-20T14:39:29.046Z,15.63
2022-09-20T14:45:35.440Z,15.55
2022-09-20T14:51:46.578Z,15.02
2022-09-20T14:57:51.674Z,15.00
2022-09-20T15:03:55.738Z,15.46
2022-09-20T15:09:58.066Z,15.06
2022-09-20T15:16:17.822Z,15.14
2022-09-20T15:22:19.772Z,14.63
2022-09-20T15:28:22.194Z,14.43
2022-09-20T15:34:25.159Z,14.47
2022-09-20T15:40:27.189Z,13.83
2022-09-20T15:46:29.597Z,13.78
2022-09-20T15:52:36.861Z,13.51
2022-09-20T15:58:38.623Z,13.35
2022-09-20T16:04:40.328Z,13.09
2022-09-20T16:10:45.887Z,12.55
2022-09-20T16:16:47.717Z,12.79
2022-09-20T16:22:49.532Z,12.48
2022-09-20T16:28:51.411Z,12.14
2022-09-20T16:34:55.101Z,11.81
2022-09-20T16:40:57.774Z,11.34
2022-09-20T16:46:59.555Z,11.62
2022-09-20T16:53:01.292Z,11.45
2022-09-20T16:59:05.272Z,11.56
2022-09-20T17:05:08.400Z,11.37
2022-09-20T17:11:14.223Z,11.42
2022-09-20T17:17:15.962Z,11.25
2022-09-20T17:23:17.847Z,11.29
2022-09-20T17:29:20.743Z,11.62
2022-09-20T17:35:23.563Z,11.19
2022-09-20T17:41:26.367Z,11.53
2022-09-20T17:47:28.125Z,11.21
2022-09-20T17:53:35.990Z,11.64
2022-09-20T17:59:37.763Z,11.26
2022-09-20T18:05:39.560Z,11.50
2022-09-20T18:11:49.245Z,11.49
2022-09-20T18:17:54.435Z,11.63
2022-09-20T18:23:57.566Z,10.97
2022-09-20T18:29:59.331Z,11.48
2022-09-20T18:36:06.637Z,11.49
2022-09-20T18:42:09.248Z,11.42
2022-09-20T18:48:12.624Z,11.32
2022-09-20T18:54:16.221Z,10.77
2022-09-20T19:00:23.694Z,11.26
2022-09-20T19:06:30.830Z,11.51
2022-09-20T19:12:55.657Z,11.51
2022-09-20T19:19:20.411Z,11.49
2022-09-20T19:25:43.500Z,11.10
2022-09-20T19:31:49.887Z,11.07
2022-09-20T19:38:04.536Z,11.10
2022-09-20T19:44:34.133Z,11.33
2022-09-20T19:50:49.847Z,11.16
2022-09-20T19:56:57.214Z,10.65
2022-09-20T20:02:59.375Z,10.87
2022-09-20T20:09:04.160Z,11.19
2022-09-20T20:15:46.360Z,11.16
2022-09-20T20:21:59.081Z,11.20
2022-09-20T20:28:00.942Z,11.07
2022-09-20T20:34:02.696Z,11.14
2022-09-20T20:40:05.784Z,11.10
2022-09-20T20:46:12.473Z,10.70
2022-09-20T20:52:14.366Z,10.74
2022-09-20T20:58:16.104Z,10.94
2022-09-20T21:04:18.304Z,11.03
2022-09-20T21:10:21.880Z,10.87
2022-09-20T21:16:29.373Z,11.01
2022-09-20T21:22:32.244Z,10.91
2022-09-20T21:28:42.077Z,10.57
2022-09-20T21:34:43.830Z,10.76
2022-09-20T21:40:45.572Z,10.63
2022-09-20T21:46:48.531Z,10.66
2022-09-20T21:52:50.788Z,10.61
2022-09-20T21:58:52.529Z,10.75
2022-09-20T22:04:54.219Z,10.68
2022-09-20T22:10:57.552Z,10.66
2022-09-20T22:17:00.315Z,10.34
2022-09-20T22:23:02.003Z,10.61
2022-09-20T22:29:04.626Z,10.51
2022-09-20T22:35:06.626Z,10.68
2022-09-20T22:41:08.400Z,10.57
2022-09-20T22:47:10.290Z,10.64
2022-09-20T22:53:12.221Z,10.39
2022-09-20T22:59:14.796Z,10.55
2022-09-20T23:05:18.246Z,10.20
2022-09-20T23:11:20.500Z,10.54
2022-09-20T23:17:22.472Z,10.38
2022-09-20T23:23:24.166Z,10.48
2022-09-20T23:29:26.169Z,10.44
2022-09-20T23:35:27.883Z,10.41
2022-09-20T23:41:29.877Z,10.18
2022-09-20T23:47:31.597Z,10.14
2022-09-20T23:53:33.514Z,10.24
2022-09-20T23:59:35.227Z,10.30
